createdAt,value
2018-06-24T00:00:32.931Z,0.00
2018-06-24T00:01:32.869Z,0.00
2018-06-24T00:02:32.815Z,0.00
2018-06-24T00:03:32.758Z,0.00
2018-06-24T00:04:32.743Z,0.00
2018-06-24T00:05:32.631Z,0.00
2018-06-24T00:06:32.565Z,0.00
2018-06-24T00:07:32.522Z,0.00
2018-06-24T00:08:32.460Z,0.00
2018-06-24T00:09:32.389Z,0.00
2018-06-24T00:10:32.342Z,0.00
2018-06-24T00:11:32.266Z,0.00
2018-06-24T00:12:32.210Z,0.00
2018-06-24T00:13:32.187Z,0.00
2018-06-24T00:14:32.075Z,0.00
2018-06-24T00:15:32.028Z,0.00
2018-06-24T00:16:31.969Z,0.00
2018-06-24T00:17:31.897Z,0.00
2018-06-24T00:18:31.837Z,0.00
2018-06-24T00:19:31.770Z,0.00
2018-06-24T00:20:31.704Z,0.00
2018-06-24T00:21:31.647Z,0.00
2018-06-24T00:22:31.596Z,0.00
2018-06-24T00:23:31.533Z,0.00
2018-06-24T00:24:31.484Z,0.00
2018-06-24T00:25:31.420Z,0.00
2018-06-24T00:26:31.349Z,0.00
2018-06-24T00:27:31.283Z,0.00
2018-06-24T00:28:31.225Z,0.00
2018-06-24T00:29:31.166Z,0.00
2018-06-24T00:30:31.097Z,0.00
2018-06-24T00:31:31.039Z,0.00
2018-06-24T00:32:30.986Z,0.00
2018-06-24T00:33:30.926Z,0.00
2018-06-24T00:34:30.868Z,0.00
2018-06-24T00:35:30.811Z,0.00
2018-06-24T00:36:30.728Z,0.00
2018-06-24T00:37:30.686Z,0.00
2018-06-24T00:38:30.612Z,0.00
2018-06-24T00:39:30.557Z,0.00
2018-06-24T00:40:30.500Z,0.00
2018-06-24T00:41:30.439Z,0.00
2018-06-24T00:42:30.363Z,0.00
2018-06-24T00:43:30.299Z,0.00
2018-06-24T00:44:30.251Z,0.00
2018-06-24T00:45:30.194Z,0.00
2018-06-24T00:46:30.124Z,0.00
2018-06-24T00:47:30.063Z,0.00
2018-06-24T00:48:29.993Z,0.00
2018-06-24T00:49:29.927Z,0.00
2018-06-24T00:50:29.883Z,0.00
2018-06-24T00:51:29.811Z,0.00
2018-06-24T00:52:29.777Z,0.00
2018-06-24T00:53:29.695Z,0.00
2018-06-24T00:54:29.637Z,0.00
2018-06-24T00:55:29.563Z,0.00
2018-06-24T00:56:29.504Z,0.00
2018-06-24T00:57:29.441Z,0.00
2018-06-24T00:58:29.386Z,0.00
2018-06-24T00:59:29.317Z,0.00
2018-06-24T01:00:29.267Z,0.00
2018-06-24T01:01:29.215Z,0.00
2018-06-24T01:02:29.133Z,0.00
2018-06-24T01:03:29.088Z,0.00
2018-06-24T01:04:29.020Z,0.00
2018-06-24T01:05:28.955Z,0.00
2018-06-24T01:06:28.905Z,0.00
2018-06-24T01:07:28.827Z,0.00
2018-06-24T01:08:28.771Z,0.00
2018-06-24T01:09:28.716Z,0.00
2018-06-24T01:10:28.649Z,0.00
2018-06-24T01:11:28.582Z,0.00
2018-06-24T01:12:28.527Z,0.00
2018-06-24T01:13:28.467Z,0.00
2018-06-24T01:14:28.416Z,0.00
2018-06-24T01:15:28.344Z,0.00
2018-06-24T01:16:28.300Z,0.00
2018-06-24T01:17:28.208Z,0.00
2018-06-24T01:18:28.165Z,0.00
2018-06-24T01:19:28.106Z,0.00
2018-06-24T01:20:28.029Z,0.00
2018-06-24T01:21:27.976Z,0.00
2018-06-24T01:22:27.911Z,0.00
2018-06-24T01:23:27.841Z,0.00
2018-06-24T01:24:27.779Z,0.00
2018-06-24T01:25:27.721Z,0.00
2018-06-24T01:26:27.654Z,0.00
2018-06-24T01:27:27.611Z,0.00
2018-06-24T01:28:27.542Z,0.00
2018-06-24T01:29:27.473Z,0.00
2018-06-24T01:30:27.424Z,0.00
2018-06-24T01:31:27.372Z,0.00
2018-06-24T01:32:27.280Z,0.00
2018-06-24T01:33:27.246Z,0.00
2018-06-24T01:34:27.174Z,0.00
2018-06-24T01:35:27.115Z,0.00
2018-06-24T01:36:27.083Z,0.00
2018-06-24T01:37:26.977Z,0.00
2018-06-24T01:38:26.921Z,0.00
2018-06-24T01:39:26.869Z,0.00
2018-06-24T01:40:26.806Z,0.00
2018-06-24T01:41:26.739Z,0.00
2018-06-24T01:42:26.671Z,0.00
2018-06-24T01:43:26.604Z,0.00
2018-06-24T01:44:26.566Z,0.00
2018-06-24T01:45:26.487Z,0.00
2018-06-24T01:46:26.427Z,0.00
2018-06-24T01:47:26.374Z,0.00
2018-06-24T01:48:26.307Z,0.00
2018-06-24T01:49:26.257Z,0.00
2018-06-24T01:50:26.179Z,0.00
2018-06-24T01:51:26.121Z,0.00
2018-06-24T01:52:26.060Z,0.00
2018-06-24T01:53:26.001Z,0.00
2018-06-24T01:54:25.946Z,0.00
2018-06-24T01:55:25.882Z,0.00
2018-06-24T01:56:25.820Z,0.00
2018-06-24T01:57:25.756Z,0.00
2018-06-24T01:58:25.697Z,0.00
2018-06-24T01:59:25.627Z,0.00
2018-06-24T02:00:25.581Z,0.00
2018-06-24T02:01:25.506Z,0.00
2018-06-24T02:02:25.437Z,0.00
2018-06-24T02:03:25.386Z,0.00
2018-06-24T02:04:25.324Z,0.00
2018-06-24T02:05:25.249Z,0.00
2018-06-24T02:06:25.215Z,0.00
2018-06-24T02:07:25.133Z,0.00
2018-06-24T02:08:25.083Z,0.00
2018-06-24T02:09:25.001Z,0.00
2018-06-24T02:10:24.959Z,0.00
2018-06-24T02:11:24.896Z,0.00
2018-06-24T02:12:24.823Z,0.00
2018-06-24T02:13:24.765Z,0.00
2018-06-24T02:14:24.712Z,0.00
2018-06-24T02:15:24.648Z,0.00
2018-06-24T02:16:24.590Z,0.00
2018-06-24T02:17:24.528Z,0.00
2018-06-24T02:18:24.457Z,0.00
2018-06-24T02:19:24.397Z,0.00
2018-06-24T02:20:24.333Z,0.00
2018-06-24T02:21:24.270Z,0.00
2018-06-24T02:22:24.218Z,0.00
2018-06-24T02:23:24.139Z,0.00
2018-06-24T02:24:24.087Z,0.00
2018-06-24T02:25:24.026Z,0.00
2018-06-24T02:26:23.956Z,0.00
2018-06-24T02:27:23.911Z,0.00
2018-06-24T02:28:23.832Z,0.00
2018-06-24T02:29:23.786Z,0.00
2018-06-24T02:30:23.711Z,0.00
2018-06-24T02:31:23.649Z,0.00
2018-06-24T02:32:23.580Z,0.00
2018-06-24T02:33:23.521Z,0.00
2018-06-24T02:34:23.470Z,0.00
2018-06-24T02:35:23.405Z,0.00
2018-06-24T02:36:23.337Z,0.00
2018-06-24T02:37:23.287Z,0.00
2018-06-24T02:38:23.212Z,0.00
2018-06-24T02:39:23.161Z,0.00
2018-06-24T02:40:23.099Z,0.00
2018-06-24T02:41:23.035Z,0.00
2018-06-24T02:42:22.966Z,0.00
2018-06-24T02:43:22.915Z,0.00
2018-06-24T02:44:22.859Z,0.00
2018-06-24T02:45:22.780Z,0.00
2018-06-24T02:46:22.722Z,0.00
2018-06-24T02:47:22.655Z,0.00
2018-06-24T02:48:22.599Z,0.00
2018-06-24T02:49:22.533Z,0.00
2018-06-24T02:50:22.489Z,0.00
2018-06-24T02:51:22.400Z,0.00
2018-06-24T02:52:22.354Z,0.00
2018-06-24T02:53:22.297Z,0.00
2018-06-24T02:54:22.226Z,0.00
2018-06-24T02:55:22.160Z,0.00
2018-06-24T02:56:22.094Z,0.00
2018-06-24T02:57:22.037Z,0.00
2018-06-24T02:58:21.976Z,0.00
2018-06-24T02:59:21.921Z,0.00
2018-06-24T03:00:21.855Z,0.00
2018-06-24T03:01:21.794Z,0.00
2018-06-24T03:02:21.734Z,0.00
2018-06-24T03:03:21.659Z,0.00
2018-06-24T03:04:21.599Z,0.00
2018-06-24T03:05:21.538Z,0.00
2018-06-24T03:06:21.471Z,0.00
2018-06-24T03:07:21.411Z,0.00
2018-06-24T03:08:21.380Z,0.00
2018-06-24T03:09:21.295Z,0.00
2018-06-24T03:10:21.240Z,0.00
2018-06-24T03:11:21.169Z,0.00
2018-06-24T03:12:21.099Z,0.00
2018-06-24T03:13:21.078Z,0.00
2018-06-24T03:14:20.971Z,0.00
2018-06-24T03:15:20.929Z,0.00
2018-06-24T03:16:20.863Z,0.00
2018-06-24T03:17:20.789Z,0.00
2018-06-24T03:18:20.726Z,0.00
2018-06-24T03:19:20.668Z,0.00
2018-06-24T03:20:20.623Z,0.00
2018-06-24T03:21:20.552Z,0.00
2018-06-24T03:22:20.472Z,0.00
2018-06-24T03:23:31.699Z,0.00
2018-06-24T03:24:20.415Z,0.00
2018-06-24T03:25:20.296Z,0.00
2018-06-24T03:26:20.239Z,0.00
2018-06-24T03:27:20.174Z,0.00
2018-06-24T03:28:20.119Z,0.00
2018-06-24T03:29:20.036Z,0.00
2018-06-24T03:30:19.980Z,0.00
2018-06-24T03:31:19.914Z,0.00
2018-06-24T03:32:19.855Z,0.00
2018-06-24T03:33:19.789Z,0.00
2018-06-24T03:34:19.724Z,0.00
2018-06-24T03:35:19.676Z,0.00
2018-06-24T03:36:19.618Z,0.00
2018-06-24T03:37:19.546Z,0.00
2018-06-24T03:38:19.479Z,0.00
2018-06-24T03:39:19.410Z,0.00
2018-06-24T03:40:19.372Z,0.00
2018-06-24T03:41:19.291Z,0.00
2018-06-24T03:42:19.227Z,0.00
2018-06-24T03:43:19.167Z,0.00
2018-06-24T03:44:19.098Z,0.00
2018-06-24T03:45:19.036Z,0.00
2018-06-24T03:46:18.975Z,0.00
2018-06-24T03:47:18.917Z,0.00
2018-06-24T03:48:18.859Z,0.00
2018-06-24T03:49:18.797Z,0.00
2018-06-24T03:50:18.743Z,0.00
2018-06-24T03:51:18.673Z,0.00
2018-06-24T03:52:18.607Z,0.00
2018-06-24T03:53:18.555Z,0.00
2018-06-24T03:54:18.482Z,0.00
2018-06-24T03:55:18.417Z,0.00
2018-06-24T03:56:18.354Z,0.00
2018-06-24T03:57:18.338Z,0.00
2018-06-24T03:58:18.238Z,0.00
2018-06-24T03:59:18.175Z,0.00
2018-06-24T04:00:18.126Z,0.00
2018-06-24T04:01:18.045Z,0.00
2018-06-24T04:02:17.972Z,4.00
2018-06-24T04:03:17.924Z,4.00
2018-06-24T04:04:17.861Z,4.00
2018-06-24T04:05:17.797Z,0.00
2018-06-24T04:06:17.734Z,4.00
2018-06-24T04:07:17.666Z,4.00
2018-06-24T04:08:17.600Z,4.00
2018-06-24T04:09:17.548Z,4.00
2018-06-24T04:10:17.481Z,4.00
2018-06-24T04:11:17.420Z,4.00
2018-06-24T04:12:17.358Z,8.00
2018-06-24T04:13:17.289Z,8.00
2018-06-24T04:14:17.241Z,8.00
2018-06-24T04:15:17.303Z,12.00
2018-06-24T04:16:17.098Z,12.00
2018-06-24T04:17:17.039Z,12.00
2018-06-24T04:18:17.036Z,16.00
2018-06-24T04:19:16.915Z,20.00
2018-06-24T04:20:16.857Z,20.00
2018-06-24T04:21:16.800Z,24.00
2018-06-24T04:22:16.723Z,24.00
2018-06-24T04:23:16.674Z,32.00
2018-06-24T04:24:16.603Z,32.00
2018-06-24T04:25:16.540Z,36.00
2018-06-24T04:26:16.481Z,40.00
2018-06-24T04:27:16.415Z,48.00
2018-06-24T04:28:16.372Z,52.00
2018-06-24T04:29:16.293Z,56.00
2018-06-24T04:30:16.229Z,64.00
2018-06-24T04:31:16.162Z,68.00
2018-06-24T04:32:16.118Z,76.00
2018-06-24T04:33:16.026Z,84.00
2018-06-24T04:34:15.968Z,88.00
2018-06-24T04:35:15.905Z,96.00
2018-06-24T04:36:15.860Z,108.00
2018-06-24T04:37:15.795Z,112.00
2018-06-24T04:38:15.740Z,120.00
2018-06-24T04:39:15.650Z,128.00
2018-06-24T04:40:15.595Z,136.00
2018-06-24T04:41:15.529Z,144.00
2018-06-24T04:42:15.475Z,160.00
2018-06-24T04:43:15.400Z,168.00
2018-06-24T04:44:15.349Z,176.00
2018-06-24T04:45:15.285Z,184.00
2018-06-24T04:46:15.214Z,192.00
2018-06-24T04:47:15.161Z,212.00
2018-06-24T04:48:15.097Z,224.00
2018-06-24T04:49:15.036Z,240.00
2018-06-24T04:50:14.968Z,252.00
2018-06-24T04:51:14.914Z,268.00
2018-06-24T04:52:14.841Z,280.00
2018-06-24T04:53:14.782Z,296.00
2018-06-24T04:54:14.707Z,320.00
2018-06-24T04:55:14.662Z,332.00
2018-06-24T04:56:14.597Z,352.00
2018-06-24T04:57:14.524Z,368.00
2018-06-24T04:58:14.489Z,388.00
2018-06-24T04:59:14.421Z,404.00
2018-06-24T05:00:14.335Z,420.00
2018-06-24T05:01:14.285Z,432.00
2018-06-24T05:02:14.219Z,448.00
2018-06-24T05:03:14.154Z,464.00
2018-06-24T05:04:14.087Z,480.00
2018-06-24T05:05:14.043Z,492.00
2018-06-24T05:06:13.975Z,508.00
2018-06-24T05:07:13.903Z,504.00
2018-06-24T05:08:13.842Z,496.00
2018-06-24T05:09:13.780Z,496.00
2018-06-24T05:10:13.719Z,488.00
2018-06-24T05:11:13.643Z,484.00
2018-06-24T05:12:13.582Z,480.00
2018-06-24T05:13:13.537Z,480.00
2018-06-24T05:14:13.468Z,484.00
2018-06-24T05:15:13.432Z,496.00
2018-06-24T05:16:13.342Z,508.00
2018-06-24T05:17:13.272Z,520.00
2018-06-24T05:18:13.258Z,528.00
2018-06-24T05:19:13.161Z,544.00
2018-06-24T05:20:13.096Z,560.00
2018-06-24T05:21:13.010Z,576.00
2018-06-24T05:22:12.958Z,596.00
2018-06-24T05:23:12.900Z,612.00
2018-06-24T05:24:12.837Z,632.00
2018-06-24T05:25:12.769Z,648.00
2018-06-24T05:26:12.720Z,660.00
2018-06-24T05:27:12.655Z,664.00
2018-06-24T05:28:12.591Z,660.00
2018-06-24T05:29:12.510Z,656.00
2018-06-24T05:30:12.466Z,644.00
2018-06-24T05:31:12.385Z,644.00
2018-06-24T05:32:12.331Z,648.00
2018-06-24T05:33:12.268Z,656.00
2018-06-24T05:34:12.199Z,668.00
2018-06-24T05:35:12.148Z,680.00
2018-06-24T05:36:12.077Z,688.00
2018-06-24T05:37:12.020Z,692.00
2018-06-24T05:38:11.959Z,696.00
2018-06-24T05:39:11.889Z,704.00
2018-06-24T05:40:11.841Z,712.00
2018-06-24T05:41:11.775Z,720.00
2018-06-24T05:42:11.729Z,732.00
2018-06-24T05:43:11.705Z,736.00
2018-06-24T05:44:11.560Z,744.00
2018-06-24T05:45:11.498Z,756.00
2018-06-24T05:46:11.446Z,768.00
2018-06-24T05:47:11.390Z,788.00
2018-06-24T05:48:11.320Z,800.00
2018-06-24T05:49:11.259Z,812.00
2018-06-24T05:50:11.203Z,828.00
2018-06-24T05:51:11.128Z,840.00
2018-06-24T05:52:11.076Z,876.00
2018-06-24T05:53:11.006Z,924.00
2018-06-24T05:54:10.952Z,976.00
2018-06-24T05:55:10.872Z,1036.00
2018-06-24T05:56:10.842Z,1088.00
2018-06-24T05:57:10.744Z,1124.00
2018-06-24T05:58:10.692Z,1124.00
2018-06-24T05:59:10.639Z,1100.00
2018-06-24T06:00:10.562Z,1092.00
2018-06-24T06:01:10.509Z,1104.00
2018-06-24T06:02:10.450Z,1120.00
2018-06-24T06:03:10.366Z,1108.00
2018-06-24T06:04:10.308Z,1096.00
2018-06-24T06:05:10.249Z,1084.00
2018-06-24T06:06:10.189Z,1076.00
2018-06-24T06:07:10.162Z,1068.00
2018-06-24T06:08:10.069Z,1076.00
2018-06-24T06:09:09.996Z,1088.00
2018-06-24T06:10:10.021Z,1108.00
2018-06-24T06:11:09.874Z,1100.00
2018-06-24T06:12:09.810Z,1076.00
2018-06-24T06:13:09.773Z,1060.00
2018-06-24T06:14:09.694Z,1044.00
2018-06-24T06:15:09.616Z,1040.00
2018-06-24T06:16:09.655Z,1052.00
2018-06-24T06:17:09.489Z,1120.00
2018-06-24T06:18:09.429Z,1192.00
2018-06-24T06:19:09.372Z,1796.00
2018-06-24T06:20:09.307Z,1520.00
2018-06-24T06:21:09.245Z,1260.00
2018-06-24T06:22:09.176Z,1300.00
2018-06-24T06:23:09.121Z,1376.00
2018-06-24T06:24:09.074Z,1424.00
2018-06-24T06:25:08.996Z,1472.00
2018-06-24T06:26:08.940Z,1584.00
2018-06-24T06:27:08.874Z,2928.00
2018-06-24T06:28:08.814Z,3660.00
2018-06-24T06:29:08.734Z,3856.00
2018-06-24T06:30:08.695Z,3716.00
2018-06-24T06:31:08.612Z,3816.00
2018-06-24T06:32:08.565Z,3964.00
2018-06-24T06:33:08.494Z,3980.00
2018-06-24T06:34:08.442Z,3840.00
2018-06-24T06:35:08.360Z,3908.00
2018-06-24T06:36:08.310Z,3840.00
2018-06-24T06:37:08.236Z,3872.00
2018-06-24T06:38:08.177Z,4184.00
2018-06-24T06:39:08.143Z,4284.00
2018-06-24T06:40:08.053Z,4300.00
2018-06-24T06:41:08.008Z,3792.00
2018-06-24T06:42:07.927Z,2736.00
2018-06-24T06:43:07.880Z,2600.00
2018-06-24T06:44:07.816Z,3800.00
2018-06-24T06:45:07.866Z,3460.00
2018-06-24T06:46:07.701Z,3192.00
2018-06-24T06:47:07.635Z,2804.00
2018-06-24T06:48:07.559Z,3088.00
2018-06-24T06:49:07.506Z,2460.00
2018-06-24T06:50:07.439Z,3112.00
2018-06-24T06:51:07.432Z,4216.00
2018-06-24T06:52:07.324Z,3112.00
2018-06-24T06:53:07.246Z,3080.00
2018-06-24T06:54:07.194Z,4284.00
2018-06-24T06:55:07.127Z,4296.00
2018-06-24T06:56:07.058Z,4364.00
2018-06-24T06:57:07.017Z,4360.00
2018-06-24T06:58:06.954Z,4436.00
2018-06-24T06:59:06.892Z,4488.00
2018-06-24T07:00:06.843Z,4504.00
2018-06-24T07:01:06.764Z,4508.00
2018-06-24T07:02:06.720Z,4576.00
2018-06-24T07:03:06.636Z,4640.00
2018-06-24T07:04:06.580Z,4672.00
2018-06-24T07:05:06.518Z,4708.00
2018-06-24T07:06:06.468Z,4724.00
2018-06-24T07:07:06.400Z,4708.00
2018-06-24T07:08:06.338Z,4680.00
2018-06-24T07:09:06.278Z,4632.00
2018-06-24T07:10:06.210Z,4696.00
2018-06-24T07:11:06.164Z,4768.00
2018-06-24T07:12:06.100Z,4764.00
2018-06-24T07:13:06.074Z,4724.00
2018-06-24T07:14:05.968Z,4872.00
2018-06-24T07:15:05.925Z,4948.00
2018-06-24T07:16:05.858Z,4948.00
2018-06-24T07:17:05.787Z,5024.00
2018-06-24T07:18:05.779Z,4668.00
2018-06-24T07:19:05.675Z,4980.00
2018-06-24T07:20:05.618Z,5060.00
2018-06-24T07:21:05.556Z,5168.00
2018-06-24T07:22:05.513Z,4972.00
2018-06-24T07:23:05.441Z,5036.00
2018-06-24T07:24:05.362Z,5028.00
2018-06-24T07:25:05.317Z,5008.00
2018-06-24T07:26:05.256Z,3600.00
2018-06-24T07:27:05.182Z,4692.00
2018-06-24T07:28:05.118Z,4872.00
2018-06-24T07:29:05.069Z,5016.00
2018-06-24T07:30:05.012Z,5048.00
2018-06-24T07:31:04.958Z,5284.00
2018-06-24T07:32:04.890Z,5516.00
2018-06-24T07:33:04.895Z,5428.00
2018-06-24T07:34:04.770Z,5312.00
2018-06-24T07:35:04.704Z,4812.00
2018-06-24T07:36:04.654Z,5024.00
2018-06-24T07:37:04.590Z,4332.00
2018-06-24T07:38:04.526Z,4152.00
2018-06-24T07:39:04.530Z,3948.00
2018-06-24T07:40:04.407Z,3564.00
2018-06-24T07:41:04.355Z,4168.00
2018-06-24T07:42:04.284Z,3952.00
2018-06-24T07:43:04.234Z,4608.00
2018-06-24T07:44:04.171Z,5092.00
2018-06-24T07:45:04.127Z,5756.00
2018-06-24T07:46:04.046Z,5720.00
2018-06-24T07:47:04.003Z,5908.00
2018-06-24T07:48:03.927Z,5456.00
2018-06-24T07:49:03.878Z,4772.00
2018-06-24T07:50:03.824Z,4620.00
2018-06-24T07:51:03.752Z,4808.00
2018-06-24T07:52:03.699Z,4932.00
2018-06-24T07:53:03.633Z,4920.00
2018-06-24T07:54:03.571Z,4048.00
2018-06-24T07:55:03.511Z,4152.00
2018-06-24T07:56:03.449Z,4280.00
2018-06-24T07:57:03.416Z,5104.00
2018-06-24T07:58:03.335Z,5588.00
2018-06-24T07:59:03.281Z,5680.00
2018-06-24T08:00:03.234Z,4488.00
2018-06-24T08:01:03.171Z,5064.00
2018-06-24T08:02:03.101Z,4416.00
2018-06-24T08:03:03.031Z,4600.00
2018-06-24T08:04:02.989Z,4704.00
2018-06-24T08:05:02.919Z,5204.00
2018-06-24T08:06:02.866Z,5092.00
2018-06-24T08:07:02.800Z,5328.00
2018-06-24T08:08:02.744Z,5480.00
2018-06-24T08:09:02.678Z,5628.00
2018-06-24T08:10:02.618Z,5720.00
2018-06-24T08:11:02.555Z,4824.00
2018-06-24T08:12:02.511Z,3772.00
2018-06-24T08:13:02.442Z,3736.00
2018-06-24T08:14:02.391Z,3456.00
2018-06-24T08:15:02.338Z,3904.00
2018-06-24T08:16:02.272Z,3752.00
2018-06-24T08:17:02.213Z,3936.00
2018-06-24T08:18:02.142Z,4116.00
2018-06-24T08:19:02.157Z,4056.00
2018-06-24T08:20:02.024Z,4356.00
2018-06-24T08:21:01.977Z,4336.00
2018-06-24T08:22:01.915Z,4448.00
2018-06-24T08:23:01.856Z,4636.00
2018-06-24T08:24:01.791Z,4704.00
2018-06-24T08:25:01.739Z,4816.00
2018-06-24T08:26:01.679Z,5076.00
2018-06-24T08:27:01.608Z,5048.00
2018-06-24T08:28:01.552Z,5152.00
2018-06-24T08:29:01.496Z,5196.00
2018-06-24T08:30:01.436Z,5148.00
2018-06-24T08:31:01.385Z,5216.00
2018-06-24T08:32:01.341Z,4820.00
2018-06-24T08:33:01.261Z,5156.00
2018-06-24T08:34:01.210Z,5192.00
2018-06-24T08:35:01.136Z,5164.00
2018-06-24T08:36:01.074Z,5056.00
2018-06-24T08:37:01.016Z,5092.00
2018-06-24T08:38:00.969Z,5068.00
2018-06-24T08:39:00.943Z,5044.00
2018-06-24T08:40:00.847Z,5052.00
2018-06-24T08:41:00.778Z,5052.00
2018-06-24T08:42:00.728Z,5036.00
2018-06-24T08:43:00.660Z,5024.00
2018-06-24T08:44:00.623Z,5008.00
2018-06-24T08:45:00.532Z,4992.00
2018-06-24T08:46:00.484Z,4968.00
2018-06-24T08:47:00.424Z,4944.00
2018-06-24T08:48:00.369Z,4932.00
2018-06-24T08:49:00.316Z,4912.00
2018-06-24T08:50:00.249Z,4924.00
2018-06-24T08:51:00.183Z,4924.00
2018-06-24T08:52:00.137Z,4928.00
2018-06-24T08:53:00.082Z,4916.00
2018-06-24T08:54:00.034Z,4928.00
2018-06-24T08:54:59.963Z,4900.00
2018-06-24T08:55:59.904Z,4904.00
2018-06-24T08:56:59.836Z,4892.00
2018-06-24T08:57:59.782Z,4876.00
2018-06-24T08:58:59.726Z,4856.00
2018-06-24T08:59:59.657Z,4828.00
2018-06-24T09:00:59.594Z,4828.00
2018-06-24T09:01:59.541Z,4800.00
2018-06-24T09:02:59.486Z,4792.00
2018-06-24T09:03:59.418Z,4772.00
2018-06-24T09:04:59.366Z,4760.00
2018-06-24T09:05:59.317Z,4728.00
2018-06-24T09:06:59.238Z,4720.00
2018-06-24T09:07:59.223Z,4712.00
2018-06-24T09:08:59.137Z,4712.00
2018-06-24T09:09:59.068Z,4708.00
2018-06-24T09:10:59.014Z,4696.00
2018-06-24T09:11:58.952Z,4688.00
2018-06-24T09:12:58.884Z,4676.00
2018-06-24T09:13:58.891Z,4660.00
2018-06-24T09:14:58.781Z,4640.00
2018-06-24T09:15:58.759Z,4628.00
2018-06-24T09:16:58.663Z,4608.00
2018-06-24T09:17:58.611Z,4584.00
2018-06-24T09:18:58.543Z,4572.00
2018-06-24T09:19:58.476Z,4560.00
2018-06-24T09:20:58.436Z,4548.00
2018-06-24T09:21:58.393Z,4540.00
2018-06-24T09:22:58.309Z,4536.00
2018-06-24T09:23:58.244Z,4516.00
2018-06-24T09:24:58.187Z,4512.00
2018-06-24T09:25:58.136Z,4480.00
2018-06-24T09:26:58.081Z,4436.00
2018-06-24T09:27:58.016Z,4444.00
2018-06-24T09:28:57.960Z,4444.00
2018-06-24T09:29:57.904Z,4448.00
2018-06-24T09:30:57.833Z,4440.00
2018-06-24T09:31:57.779Z,4436.00
2018-06-24T09:32:57.710Z,4432.00
2018-06-24T09:33:57.674Z,4420.00
2018-06-24T09:34:57.608Z,4400.00
2018-06-24T09:35:57.542Z,4380.00
2018-06-24T09:36:57.480Z,4372.00
2018-06-24T09:37:57.433Z,4348.00
2018-06-24T09:38:57.460Z,4336.00
2018-06-24T09:39:57.306Z,4320.00
2018-06-24T09:40:57.305Z,4328.00
2018-06-24T09:41:57.241Z,4324.00
2018-06-24T09:42:57.141Z,4312.00
2018-06-24T09:43:57.072Z,4304.00
2018-06-24T09:44:57.022Z,4300.00
2018-06-24T09:45:56.969Z,4288.00
2018-06-24T09:46:56.911Z,4264.00
2018-06-24T09:47:56.856Z,4248.00
2018-06-24T09:48:56.787Z,4236.00
2018-06-24T09:49:56.724Z,4216.00
2018-06-24T09:50:56.691Z,4200.00
2018-06-24T09:51:56.618Z,4200.00
2018-06-24T09:52:56.639Z,4192.00
2018-06-24T09:53:56.489Z,4160.00
2018-06-24T09:54:56.434Z,4132.00
2018-06-24T09:55:56.376Z,4132.00
2018-06-24T09:56:56.304Z,4136.00
2018-06-24T09:57:56.269Z,4132.00
2018-06-24T09:58:56.196Z,4108.00
2018-06-24T09:59:56.135Z,4088.00
2018-06-24T10:00:56.119Z,4056.00
2018-06-24T10:01:56.030Z,4032.00
2018-06-24T10:02:55.963Z,4028.00
2018-06-24T10:03:55.916Z,4012.00
2018-06-24T10:04:55.854Z,4012.00
2018-06-24T10:05:55.787Z,4008.00
2018-06-24T10:06:55.726Z,4000.00
2018-06-24T10:07:55.666Z,4000.00
2018-06-24T10:08:55.606Z,4000.00
2018-06-24T10:09:55.543Z,3988.00
2018-06-24T10:10:55.490Z,3988.00
2018-06-24T10:11:55.421Z,3996.00
2018-06-24T10:12:55.352Z,3992.00
2018-06-24T10:13:55.311Z,4004.00
2018-06-24T10:14:55.252Z,4012.00
2018-06-24T10:15:55.195Z,4008.00
2018-06-24T10:16:55.131Z,4000.00
2018-06-24T10:17:55.071Z,4004.00
2018-06-24T10:18:55.016Z,4004.00
2018-06-24T10:19:54.952Z,4004.00
2018-06-24T10:20:54.886Z,4008.00
2018-06-24T10:21:54.841Z,4012.00
2018-06-24T10:22:54.774Z,4028.00
2018-06-24T10:23:54.714Z,4052.00
2018-06-24T10:24:54.674Z,3984.00
2018-06-24T10:25:54.605Z,3544.00
2018-06-24T10:26:54.554Z,3520.00
2018-06-24T10:27:54.474Z,3864.00
2018-06-24T10:28:54.440Z,3932.00
2018-06-24T10:29:54.368Z,3892.00
2018-06-24T10:30:54.306Z,3908.00
2018-06-24T10:31:54.248Z,4068.00
2018-06-24T10:32:54.183Z,4108.00
2018-06-24T10:33:54.130Z,4144.00
2018-06-24T10:34:54.062Z,4180.00
2018-06-24T10:35:54.004Z,4112.00
2018-06-24T10:36:53.955Z,4108.00
2018-06-24T10:37:53.895Z,4148.00
2018-06-24T10:38:53.849Z,4164.00
2018-06-24T10:39:53.770Z,4148.00
2018-06-24T10:40:53.715Z,4132.00
2018-06-24T10:41:53.663Z,4184.00
2018-06-24T10:42:53.656Z,4196.00
2018-06-24T10:43:53.557Z,3816.00
2018-06-24T10:44:53.497Z,3652.00
2018-06-24T10:45:53.422Z,4200.00
2018-06-24T10:46:53.362Z,4560.00
2018-06-24T10:47:53.317Z,4468.00
2018-06-24T10:48:53.249Z,4640.00
2018-06-24T10:49:53.198Z,4560.00
2018-06-24T10:50:53.147Z,4376.00
2018-06-24T10:51:53.080Z,3888.00
2018-06-24T10:52:53.059Z,3776.00
2018-06-24T10:53:52.967Z,3832.00
2018-06-24T10:54:52.914Z,4816.00
2018-06-24T10:55:52.849Z,5192.00
2018-06-24T10:56:52.802Z,5424.00
2018-06-24T10:57:52.731Z,5472.00
2018-06-24T10:58:52.662Z,5592.00
2018-06-24T10:59:52.609Z,5412.00
2018-06-24T11:00:52.552Z,5560.00
2018-06-24T11:01:52.549Z,5612.00
2018-06-24T11:02:52.433Z,5588.00
2018-06-24T11:03:52.373Z,5240.00
2018-06-24T11:04:52.335Z,5204.00
2018-06-24T11:05:52.260Z,5280.00
2018-06-24T11:06:52.198Z,5528.00
2018-06-24T11:07:52.150Z,5752.00
2018-06-24T11:08:52.092Z,6008.00
2018-06-24T11:09:52.096Z,5388.00
2018-06-24T11:10:51.973Z,5544.00
2018-06-24T11:11:51.919Z,5376.00
2018-06-24T11:12:51.868Z,5216.00
2018-06-24T11:13:51.805Z,5276.00
2018-06-24T11:14:51.749Z,5228.00
2018-06-24T11:15:51.686Z,5260.00
2018-06-24T11:16:51.633Z,5364.00
2018-06-24T11:17:51.576Z,5492.00
2018-06-24T11:18:51.503Z,5380.00
2018-06-24T11:19:51.464Z,5432.00
2018-06-24T11:20:51.388Z,5128.00
2018-06-24T11:21:51.383Z,5480.00
2018-06-24T11:22:51.274Z,4832.00
2018-06-24T11:23:51.209Z,4556.00
2018-06-24T11:24:51.179Z,4632.00
2018-06-24T11:25:51.101Z,4328.00
2018-06-24T11:26:51.053Z,3828.00
2018-06-24T11:27:50.978Z,3484.00
2018-06-24T11:28:50.924Z,3332.00
2018-06-24T11:29:50.892Z,3200.00
2018-06-24T11:30:50.814Z,3044.00
2018-06-24T11:31:50.761Z,3108.00
2018-06-24T11:32:50.763Z,3172.00
2018-06-24T11:33:50.650Z,3368.00
2018-06-24T11:34:50.592Z,3708.00
2018-06-24T11:35:50.518Z,3508.00
2018-06-24T11:36:50.481Z,3228.00
2018-06-24T11:37:50.419Z,3412.00
2018-06-24T11:38:50.355Z,3568.00
2018-06-24T11:39:50.295Z,3328.00
2018-06-24T11:40:50.252Z,3368.00
2018-06-24T11:41:50.178Z,3000.00
2018-06-24T11:42:50.129Z,2784.00
2018-06-24T11:43:50.061Z,2556.00
2018-06-24T11:44:49.991Z,2704.00
2018-06-24T11:45:49.950Z,2788.00
2018-06-24T11:46:49.892Z,2560.00
2018-06-24T11:47:49.844Z,2408.00
2018-06-24T11:48:49.770Z,2444.00
2018-06-24T11:49:49.713Z,2664.00
2018-06-24T11:50:49.649Z,2592.00
2018-06-24T11:51:49.598Z,2396.00
2018-06-24T11:52:49.527Z,2344.00
2018-06-24T11:53:49.477Z,2304.00
2018-06-24T11:54:49.422Z,2232.00
2018-06-24T11:55:49.355Z,2360.00
2018-06-24T11:56:49.311Z,2656.00
2018-06-24T11:57:49.248Z,2676.00
2018-06-24T11:58:49.175Z,2572.00
2018-06-24T11:59:49.131Z,2488.00
2018-06-24T12:00:49.067Z,2468.00
2018-06-24T12:01:49.012Z,2408.00
2018-06-24T12:02:49.082Z,2488.00
2018-06-24T12:03:48.893Z,2480.00
2018-06-24T12:04:48.849Z,2468.00
2018-06-24T12:05:48.785Z,2436.00
2018-06-24T12:06:48.741Z,2412.00
2018-06-24T12:07:48.659Z,2396.00
2018-06-24T12:08:48.614Z,2368.00
2018-06-24T12:09:48.554Z,2352.00
2018-06-24T12:10:48.531Z,2332.00
2018-06-24T12:11:48.435Z,2312.00
2018-06-24T12:12:48.364Z,2296.00
2018-06-24T12:13:48.307Z,2280.00
2018-06-24T12:14:48.243Z,2260.00
2018-06-24T12:15:48.184Z,2244.00
2018-06-24T12:16:48.133Z,2232.00
2018-06-24T12:17:48.076Z,2212.00
2018-06-24T12:18:48.019Z,2196.00
2018-06-24T12:19:48.005Z,2184.00
2018-06-24T12:20:47.892Z,2176.00
2018-06-24T12:21:47.854Z,2168.00
2018-06-24T12:22:47.789Z,2160.00
2018-06-24T12:23:47.718Z,2140.00
2018-06-24T12:24:47.668Z,2128.00
2018-06-24T12:25:47.610Z,2120.00
2018-06-24T12:26:47.553Z,2112.00
2018-06-24T12:27:47.494Z,2100.00
2018-06-24T12:28:47.443Z,2096.00
2018-06-24T12:29:47.363Z,2080.00
2018-06-24T12:30:47.399Z,2072.00
2018-06-24T12:31:47.255Z,2064.00